Ternholm — OWIM2 — position and weather

sailwx.info

Track history (hours):
 
Tides and Currents Weather Stations Pressure Air Temp Water Temp Dewpoint Dewpoint Depression Visibility Wind Speed Wind Dir Waves Ship Positions

Ternholm

Last reported at 2015-Jul-03 01:15 UTC. Time now 2015-Jul-04 22:32 UTC.
Position N 59°35' E 020°10'.

Length 141 m; draft 8.6 m.

Type: Ship (hazmat cat B). MMSI: 219076000.

Date/timePositionNaut miles runAvg speedWind from/ knotsBaromVisibWave heightAir tempDewpointWater temp
2015-Jul-03 01:15N 59°35' E 020°10'21611.5
2015-Jul-02 06:29N 56°23' E 017°03'1411.7
2015-Jul-02 05:17N 56°10' E 016°54'911.3
2015-Jul-02 04:30N 56°03' E 016°45'1111.6
2015-Jul-02 03:33N 55°57' E 016°28'1211.7
2015-Jul-02 02:33N 55°51' E 016°10'1211.7
2015-Jul-02 01:34N 55°46' E 015°52'1211.7
2015-Jul-02 00:34N 55°40' E 015°34'1211.7
2015-Jul-01 23:33N 55°35' E 015°15'1211.7
2015-Jul-01 22:33N 55°29' E 014°57'1211.6
2015-Jul-01 21:33N 55°24' E 014°39'1211.7
2015-Jul-01 20:34N 55°15' E 014°26'1211.7
2015-Jul-01 19:33N 55°05' E 014°14'1211.5
2015-Jul-01 18:32N 54°59' E 013°57'1211.7
2015-Jul-01 17:31N 54°55' E 013°37'1211.6
2015-Jul-01 16:27N 54°51' E 013°16'2311.3
2015-Jul-01 14:27N 54°43' E 012°40'1011.1
2015-Jul-01 13:33N 54°38' E 012°25'1110.6
2015-Jul-01 12:33N 54°29' E 012°15'10 9.7
2015-Jul-01 11:33N 54°25' E 012°00'1111.1
2015-Jul-01 10:33N 54°26' E 011°41'1111.3
2015-Jul-01 09:33N 54°31' E 011°24'1110.8
2015-Jul-01 08:33N 54°36' E 011°07'1111.0
2015-Jul-01 07:33N 54°43' E 010°52'1010.1
2015-Jul-01 06:33N 54°53' E 010°53'10 9.8
2015-Jul-01 05:33N 55°02' E 011°01'6510.0
2015-Jun-30 23:05N 56°06' E 011°09'911.4
2015-Jun-30 22:18N 56°13' E 011°19'1211.6
2015-Jun-30 21:14N 56°24' E 011°29'811.2
2015-Jun-30 20:33N 56°31' E 011°36'1111.3
2015-Jun-30 19:33N 56°40' E 011°49'1111.0
2015-Jun-30 18:33N 56°51' E 011°49'1211.6
2015-Jun-30 17:33N 57°02' E 011°41'1211.6
2015-Jun-30 16:33N 57°13' E 011°35'1211.8
2015-Jun-30 15:33N 57°24' E 011°37'1211.8
2015-Jun-30 14:33N 57°36' E 011°40'9 8.8
2015-Jun-30 13:33N 57°41' E 011°53'0 0.0
2015-Jun-30 12:32N 57°41' E 011°53'0 0.0
2015-Jun-30 11:32N 57°41' E 011°53'0 0.0
2015-Jun-30 10:32N 57°41' E 011°53'0 0.0
2015-Jun-30 09:32N 57°41' E 011°53'0 0.0
2015-Jun-30 08:32N 57°41' E 011°53'0 0.0
2015-Jun-30 07:32N 57°41' E 011°53'0 0.0
2015-Jun-30 06:32N 57°41' E 011°53'0 0.0
2015-Jun-30 05:32N 57°41' E 011°53'0 0.0
2015-Jun-30 04:32N 57°41' E 011°53'0 0.0
2015-Jun-30 03:32N 57°41' E 011°53'0 0.0
2015-Jun-30 02:32N 57°41' E 011°53'0 0.0
2015-Jun-30 01:32N 57°41' E 011°53'0 0.0
2015-Jun-30 00:29N 57°41' E 011°53'0 0.0
2015-Jun-29 23:32N 57°41' E 011°53'0 0.0
2015-Jun-29 22:29N 57°41' E 011°53'0 0.0
2015-Jun-29 21:31N 57°41' E 011°53'0 0.1
2015-Jun-29 20:31N 57°41' E 011°52'0 0.0
2015-Jun-29 19:31N 57°41' E 011°52'0 0.0
2015-Jun-29 18:31N 57°41' E 011°52'0 0.0
2015-Jun-29 17:31N 57°41' E 011°52'0 0.0
2015-Jun-29 16:31N 57°41' E 011°52'0 0.0
2015-Jun-29 15:31N 57°41' E 011°52'0 0.0
2015-Jun-29 14:31N 57°41' E 011°52'0 0.0
2015-Jun-29 13:28N 57°41' E 011°52'0 0.0
2015-Jun-29 12:31N 57°41' E 011°52'0 0.0
2015-Jun-29 11:31N 57°41' E 011°52'0 0.0
2015-Jun-29 10:31N 57°41' E 011°52'0 0.0
2015-Jun-29 09:31N 57°41' E 011°52'0 0.0
2015-Jun-29 08:31N 57°41' E 011°52'0 0.0
2015-Jun-29 07:31N 57°41' E 011°52'0 0.0
2015-Jun-29 06:31N 57°41' E 011°52'0 0.3
2015-Jun-29 05:33N 57°41' E 011°52'1111.0
2015-Jun-29 04:33N 57°33' E 011°39'1111.3
2015-Jun-29 03:33N 57°22' E 011°44'1111.2
2015-Jun-29 02:33N 57°12' E 011°55'1111.2
2015-Jun-29 01:33N 57°02' E 012°02'1111.3
2015-Jun-29 00:33N 56°51' E 012°08'1111.3
2015-Jun-28 23:33N 56°40' E 012°12'1111.2
2015-Jun-28 22:33N 56°29' E 012°15'1111.3
2015-Jun-28 21:33N 56°18' E 012°18'1111.2
2015-Jun-28 20:33N 56°09' E 012°30'1110.9
2015-Jun-28 19:33N 55°60' E 012°41'1110.8
2015-Jun-28 18:33N 55°49' E 012°43'1212.2
2015-Jun-28 17:33N 55°37' E 012°42'1211.8
2015-Jun-28 16:33N 55°25' E 012°42'9 9.1
2015-Jun-28 15:33N 55°17' E 012°49'1111.3
2015-Jun-28 14:33N 55°15' E 013°09'2611.5
2015-Jun-28 12:16N 55°14' E 013°55'1011.5
2015-Jun-28 11:22N 55°13' E 014°13'911.0
2015-Jun-28 10:33N 55°20' E 014°24'1111.3
2015-Jun-28 09:33N 55°28' E 014°38'1111.5
2015-Jun-28 08:33N 55°33' E 014°56'1211.5
2015-Jun-28 07:33N 55°39' E 015°13'1611.5
2015-Jun-28 06:10N 55°47' E 015°38'8410.8
2015-Jun-27 22:25N 56°51' E 017°15'1011.5
2015-Jun-27 21:33N 57°00' E 017°21'1111.5
2015-Jun-27 20:33N 57°11' E 017°28'1111.5
2015-Jun-27 19:33N 57°22' E 017°36'1111.5
2015-Jun-27 18:33N 57°32' E 017°44'  
2015-Jun-24 06:21N 55°38' E 015°22'911.8
2015-Jun-24 05:33N 55°33' E 015°08'1211.8
2015-Jun-24 04:33N 55°27' E 014°50'1211.6
2015-Jun-24 03:33N 55°19' E 014°35'1211.8
2015-Jun-24 02:33N 55°10' E 014°21'1211.8
2015-Jun-24 01:33N 55°01' E 014°08'7011.6
2015-Jun-23 19:33N 54°33' E 012°17'611.6
2015-Jun-23 19:04N 54°28' E 012°14'  
Track history (hours):
 
Tides and Currents Weather Stations Pressure Air Temp Water Temp Dewpoint Dewpoint Depression Visibility Wind Speed Wind Dir Waves Ship Positions

Ternholm

Last reported at 2015-Jul-03 01:15 UTC. Time now 2015-Jul-04 22:32 UTC.
Position N 59°35' E 020°10'.

Length 141 m; draft 8.6 m.

Type: Ship (hazmat cat B). MMSI: 219076000.

Date/timePositionNaut miles runAvg speedWind from/ knotsBaromVisibWave heightAir tempDewpointWater temp
2015-Jul-03 01:15N 59°35' E 020°10'21611.5
2015-Jul-02 06:29N 56°23' E 017°03'1411.7
2015-Jul-02 05:17N 56°10' E 016°54'911.3
2015-Jul-02 04:30N 56°03' E 016°45'1111.6
2015-Jul-02 03:33N 55°57' E 016°28'1211.7
2015-Jul-02 02:33N 55°51' E 016°10'1211.7
2015-Jul-02 01:34N 55°46' E 015°52'1211.7
2015-Jul-02 00:34N 55°40' E 015°34'1211.7
2015-Jul-01 23:33N 55°35' E 015°15'1211.7
2015-Jul-01 22:33N 55°29' E 014°57'1211.6
2015-Jul-01 21:33N 55°24' E 014°39'1211.7
2015-Jul-01 20:34N 55°15' E 014°26'1211.7
2015-Jul-01 19:33N 55°05' E 014°14'1211.5
2015-Jul-01 18:32N 54°59' E 013°57'1211.7
2015-Jul-01 17:31N 54°55' E 013°37'1211.6
2015-Jul-01 16:27N 54°51' E 013°16'2311.3
2015-Jul-01 14:27N 54°43' E 012°40'1011.1
2015-Jul-01 13:33N 54°38' E 012°25'1110.6
2015-Jul-01 12:33N 54°29' E 012°15'10 9.7
2015-Jul-01 11:33N 54°25' E 012°00'1111.1
2015-Jul-01 10:33N 54°26' E 011°41'1111.3
2015-Jul-01 09:33N 54°31' E 011°24'1110.8
2015-Jul-01 08:33N 54°36' E 011°07'1111.0
2015-Jul-01 07:33N 54°43' E 010°52'1010.1
2015-Jul-01 06:33N 54°53' E 010°53'10 9.8
2015-Jul-01 05:33N 55°02' E 011°01'6510.0
2015-Jun-30 23:05N 56°06' E 011°09'911.4
2015-Jun-30 22:18N 56°13' E 011°19'1211.6
2015-Jun-30 21:14N 56°24' E 011°29'811.2
2015-Jun-30 20:33N 56°31' E 011°36'1111.3
2015-Jun-30 19:33N 56°40' E 011°49'1111.0
2015-Jun-30 18:33N 56°51' E 011°49'1211.6
2015-Jun-30 17:33N 57°02' E 011°41'1211.6
2015-Jun-30 16:33N 57°13' E 011°35'1211.8
2015-Jun-30 15:33N 57°24' E 011°37'1211.8
2015-Jun-30 14:33N 57°36' E 011°40'9 8.8
2015-Jun-30 13:33N 57°41' E 011°53'0 0.0
2015-Jun-30 12:32N 57°41' E 011°53'0 0.0
2015-Jun-30 11:32N 57°41' E 011°53'0 0.0
2015-Jun-30 10:32N 57°41' E 011°53'0 0.0
2015-Jun-30 09:32N 57°41' E 011°53'0 0.0
2015-Jun-30 08:32N 57°41' E 011°53'0 0.0
2015-Jun-30 07:32N 57°41' E 011°53'0 0.0
2015-Jun-30 06:32N 57°41' E 011°53'0 0.0
2015-Jun-30 05:32N 57°41' E 011°53'0 0.0
2015-Jun-30 04:32N 57°41' E 011°53'0 0.0
2015-Jun-30 03:32N 57°41' E 011°53'0 0.0
2015-Jun-30 02:32N 57°41' E 011°53'0 0.0
2015-Jun-30 01:32N 57°41' E 011°53'0 0.0
2015-Jun-30 00:29N 57°41' E 011°53'0 0.0
2015-Jun-29 23:32N 57°41' E 011°53'0 0.0
2015-Jun-29 22:29N 57°41' E 011°53'0 0.0
2015-Jun-29 21:31N 57°41' E 011°53'0 0.1
2015-Jun-29 20:31N 57°41' E 011°52'0 0.0
2015-Jun-29 19:31N 57°41' E 011°52'0 0.0
2015-Jun-29 18:31N 57°41' E 011°52'0 0.0
2015-Jun-29 17:31N 57°41' E 011°52'0 0.0
2015-Jun-29 16:31N 57°41' E 011°52'0 0.0
2015-Jun-29 15:31N 57°41' E 011°52'0 0.0
2015-Jun-29 14:31N 57°41' E 011°52'0 0.0
2015-Jun-29 13:28N 57°41' E 011°52'0 0.0
2015-Jun-29 12:31N 57°41' E 011°52'0 0.0
2015-Jun-29 11:31N 57°41' E 011°52'0 0.0
2015-Jun-29 10:31N 57°41' E 011°52'0 0.0
2015-Jun-29 09:31N 57°41' E 011°52'0 0.0
2015-Jun-29 08:31N 57°41' E 011°52'0 0.0
2015-Jun-29 07:31N 57°41' E 011°52'0 0.0
2015-Jun-29 06:31N 57°41' E 011°52'0 0.3
2015-Jun-29 05:33N 57°41' E 011°52'1111.0
2015-Jun-29 04:33N 57°33' E 011°39'1111.3
2015-Jun-29 03:33N 57°22' E 011°44'1111.2
2015-Jun-29 02:33N 57°12' E 011°55'1111.2
2015-Jun-29 01:33N 57°02' E 012°02'1111.3
2015-Jun-29 00:33N 56°51' E 012°08'1111.3
2015-Jun-28 23:33N 56°40' E 012°12'1111.2
2015-Jun-28 22:33N 56°29' E 012°15'1111.3
2015-Jun-28 21:33N 56°18' E 012°18'1111.2
2015-Jun-28 20:33N 56°09' E 012°30'1110.9
2015-Jun-28 19:33N 55°60' E 012°41'1110.8
2015-Jun-28 18:33N 55°49' E 012°43'1212.2
2015-Jun-28 17:33N 55°37' E 012°42'1211.8
2015-Jun-28 16:33N 55°25' E 012°42'9 9.1
2015-Jun-28 15:33N 55°17' E 012°49'1111.3
2015-Jun-28 14:33N 55°15' E 013°09'2611.5
2015-Jun-28 12:16N 55°14' E 013°55'1011.5
2015-Jun-28 11:22N 55°13' E 014°13'911.0
2015-Jun-28 10:33N 55°20' E 014°24'1111.3
2015-Jun-28 09:33N 55°28' E 014°38'1111.5
2015-Jun-28 08:33N 55°33' E 014°56'1211.5
2015-Jun-28 07:33N 55°39' E 015°13'1611.5
2015-Jun-28 06:10N 55°47' E 015°38'8410.8
2015-Jun-27 22:25N 56°51' E 017°15'1011.5
2015-Jun-27 21:33N 57°00' E 017°21'1111.5
2015-Jun-27 20:33N 57°11' E 017°28'1111.5
2015-Jun-27 19:33N 57°22' E 017°36'1111.5
2015-Jun-27 18:33N 57°32' E 017°44'  
2015-Jun-24 06:21N 55°38' E 015°22'911.8
2015-Jun-24 05:33N 55°33' E 015°08'1211.8
2015-Jun-24 04:33N 55°27' E 014°50'1211.6
2015-Jun-24 03:33N 55°19' E 014°35'1211.8
2015-Jun-24 02:33N 55°10' E 014°21'1211.8
2015-Jun-24 01:33N 55°01' E 014°08'7011.6
2015-Jun-23 19:33N 54°33' E 012°17'611.6
2015-Jun-23 19:04N 54°28' E 012°14'  

Dump ship's entire track history